createdAt,value
2018-07-26T00:00:13.701Z,0
2018-07-26T00:01:13.790Z,0
2018-07-26T00:02:13.741Z,0
2018-07-26T00:03:13.760Z,0
2018-07-26T00:04:13.792Z,0
2018-07-26T00:05:13.838Z,0
2018-07-26T00:06:13.706Z,0
2018-07-26T00:07:13.833Z,0
2018-07-26T00:08:13.817Z,0
2018-07-26T00:09:13.799Z,0
2018-07-26T00:10:13.698Z,0
2018-07-26T00:11:13.726Z,0
2018-07-26T00:12:13.835Z,0
2018-07-26T00:13:13.724Z,0
2018-07-26T00:14:13.833Z,0
2018-07-26T00:15:13.722Z,0
2018-07-26T00:16:13.854Z,0
2018-07-26T00:17:13.843Z,0
2018-07-26T00:18:13.845Z,0
2018-07-26T00:19:13.810Z,0
2018-07-26T00:20:13.741Z,0
2018-07-26T00:21:13.745Z,0
2018-07-26T00:22:13.812Z,0
2018-07-26T00:23:13.816Z,0
2018-07-26T00:24:13.850Z,0
2018-07-26T00:25:13.818Z,0
2018-07-26T00:26:13.815Z,0
2018-07-26T00:27:13.812Z,0
2018-07-26T00:28:13.814Z,0
2018-07-26T00:29:13.744Z,0
2018-07-26T00:30:13.818Z,0
2018-07-26T00:31:13.819Z,0
2018-07-26T00:32:13.791Z,0
2018-07-26T00:33:13.853Z,0
2018-07-26T00:34:13.817Z,0
2018-07-26T00:35:13.821Z,0
2018-07-26T00:36:13.851Z,0
2018-07-26T00:37:13.757Z,0
2018-07-26T00:38:13.751Z,0
2018-07-26T00:39:13.718Z,0
2018-07-26T00:40:13.753Z,0
2018-07-26T00:41:13.873Z,0
2018-07-26T00:42:13.755Z,0
2018-07-26T00:43:13.863Z,0
2018-07-26T00:44:13.762Z,0
2018-07-26T00:45:13.839Z,0
2018-07-26T00:46:13.760Z,0
2018-07-26T00:47:13.758Z,0
2018-07-26T00:48:13.789Z,0
2018-07-26T00:49:13.825Z,0
2018-07-26T00:50:13.799Z,0
2018-07-26T00:51:13.796Z,0
2018-07-26T00:52:13.864Z,0
2018-07-26T00:53:13.732Z,0
2018-07-26T00:54:13.867Z,0
2018-07-26T00:55:13.805Z,0
2018-07-26T00:56:13.756Z,0
2018-07-26T00:57:13.859Z,0
2018-07-26T00:58:13.839Z,0
2018-07-26T00:59:13.837Z,0
2018-07-26T01:00:13.856Z,0
2018-07-26T01:01:13.857Z,0
2018-07-26T01:02:13.741Z,0
2018-07-26T01:03:13.778Z,0
2018-07-26T01:04:13.842Z,0
2018-07-26T01:05:13.847Z,0
2018-07-26T01:06:13.786Z,0
2018-07-26T01:07:13.810Z,0
2018-07-26T01:08:13.745Z,0
2018-07-26T01:09:13.831Z,0
2018-07-26T01:10:13.831Z,0
2018-07-26T01:11:13.777Z,0
2018-07-26T01:12:13.771Z,0
2018-07-26T01:13:13.740Z,0
2018-07-26T01:14:13.804Z,0
2018-07-26T01:15:13.763Z,0
2018-07-26T01:16:13.715Z,0
2018-07-26T01:17:13.716Z,0
2018-07-26T01:18:13.875Z,0
2018-07-26T01:19:13.885Z,0
2018-07-26T01:20:13.857Z,0
2018-07-26T01:21:13.818Z,0
2018-07-26T01:22:13.890Z,0
2018-07-26T01:23:13.773Z,0
2018-07-26T01:24:13.793Z,0
2018-07-26T01:25:13.814Z,0
2018-07-26T01:26:13.875Z,0
2018-07-26T01:27:13.855Z,0
2018-07-26T01:28:13.831Z,0
2018-07-26T01:29:13.888Z,0
2018-07-26T01:30:13.893Z,0
2018-07-26T01:31:13.857Z,0
2018-07-26T01:32:13.882Z,0
2018-07-26T01:33:13.859Z,0
2018-07-26T01:34:13.894Z,0
2018-07-26T01:35:13.900Z,0
2018-07-26T01:36:13.891Z,0
2018-07-26T01:37:13.825Z,0
2018-07-26T01:38:13.864Z,0
2018-07-26T01:39:13.865Z,0
2018-07-26T01:40:13.866Z,0
2018-07-26T01:41:13.795Z,0
2018-07-26T01:42:13.876Z,0
2018-07-26T01:43:13.865Z,0
2018-07-26T01:44:13.868Z,0
2018-07-26T01:45:13.866Z,0
2018-07-26T01:46:13.869Z,0
2018-07-26T01:47:13.801Z,0
2018-07-26T01:48:13.825Z,0
2018-07-26T01:49:13.871Z,0
2018-07-26T01:50:13.872Z,0
2018-07-26T01:51:13.805Z,0
2018-07-26T01:52:13.874Z,0
2018-07-26T01:53:13.808Z,0
2018-07-26T01:54:13.874Z,0
2018-07-26T01:55:13.808Z,0
2018-07-26T01:56:13.882Z,0
2018-07-26T01:57:13.812Z,0
2018-07-26T01:58:13.876Z,0
2018-07-26T01:59:13.841Z,0
2018-07-26T02:00:13.780Z,0
2018-07-26T02:01:13.903Z,0
2018-07-26T02:02:13.793Z,0
2018-07-26T02:03:13.905Z,0
2018-07-26T02:04:13.881Z,0
2018-07-26T02:05:13.856Z,0
2018-07-26T02:06:13.849Z,0
2018-07-26T02:07:13.851Z,0
2018-07-26T02:08:13.878Z,0
2018-07-26T02:09:13.804Z,0
2018-07-26T02:10:13.899Z,0
2018-07-26T02:11:13.912Z,0
2018-07-26T02:12:13.902Z,0
2018-07-26T02:13:13.889Z,0
2018-07-26T02:14:13.926Z,0
2018-07-26T02:15:13.866Z,0
2018-07-26T02:16:13.809Z,0
2018-07-26T02:17:13.810Z,0
2018-07-26T02:18:13.932Z,0
2018-07-26T02:19:13.889Z,0
2018-07-26T02:20:13.861Z,0
2018-07-26T02:21:13.861Z,0
2018-07-26T02:22:13.867Z,0
2018-07-26T02:23:13.845Z,0
2018-07-26T02:24:13.928Z,0
2018-07-26T02:25:13.922Z,0
2018-07-26T02:26:13.814Z,0
2018-07-26T02:27:13.896Z,0
2018-07-26T02:28:13.894Z,0
2018-07-26T02:29:13.869Z,0
2018-07-26T02:30:13.869Z,0
2018-07-26T02:31:13.869Z,0
2018-07-26T02:32:13.899Z,0
2018-07-26T02:33:13.917Z,0
2018-07-26T02:34:13.916Z,0
2018-07-26T02:35:13.907Z,0
2018-07-26T02:36:13.900Z,0
2018-07-26T02:37:13.806Z,0
2018-07-26T02:38:13.924Z,0
2018-07-26T02:39:13.807Z,0
2018-07-26T02:40:13.843Z,0
2018-07-26T02:41:13.929Z,0
2018-07-26T02:42:13.908Z,0
2018-07-26T02:43:13.940Z,0
2018-07-26T02:44:13.881Z,0
2018-07-26T02:45:13.845Z,0
2018-07-26T02:46:13.941Z,0
2018-07-26T02:47:13.864Z,0
2018-07-26T02:48:13.916Z,0
2018-07-26T02:49:13.945Z,0
2018-07-26T02:50:13.949Z,0
2018-07-26T02:51:13.871Z,0
2018-07-26T02:52:13.858Z,0
2018-07-26T02:53:13.916Z,0
2018-07-26T02:54:13.937Z,0
2018-07-26T02:55:13.932Z,0
2018-07-26T02:56:13.882Z,0
2018-07-26T02:57:13.843Z,0
2018-07-26T02:58:13.817Z,0
2018-07-26T02:59:13.824Z,0
2018-07-26T03:00:13.888Z,0
2018-07-26T03:01:13.949Z,0
2018-07-26T03:02:13.946Z,0
2018-07-26T03:03:13.886Z,0
2018-07-26T03:04:13.847Z,0
2018-07-26T03:05:13.939Z,0
2018-07-26T03:06:13.865Z,0
2018-07-26T03:07:13.919Z,0
2018-07-26T03:08:13.884Z,0
2018-07-26T03:09:13.830Z,0
2018-07-26T03:10:13.832Z,0
2018-07-26T03:11:13.941Z,0
2018-07-26T03:12:13.896Z,0
2018-07-26T03:13:13.832Z,0
2018-07-26T03:14:13.909Z,0
2018-07-26T03:15:13.885Z,0
2018-07-26T03:16:13.970Z,0
2018-07-26T03:17:13.910Z,0
2018-07-26T03:18:13.966Z,5
2018-07-26T03:19:13.967Z,5
2018-07-26T03:20:13.936Z,5
2018-07-26T03:21:13.911Z,5
2018-07-26T03:22:13.841Z,5
2018-07-26T03:23:13.843Z,5
2018-07-26T03:24:13.932Z,11
2018-07-26T03:25:13.902Z,11
2018-07-26T03:26:13.977Z,11
2018-07-26T03:27:13.937Z,11
2018-07-26T03:28:13.944Z,16
2018-07-26T03:29:13.932Z,16
2018-07-26T03:30:13.846Z,16
2018-07-26T03:31:13.941Z,16
2018-07-26T03:32:13.859Z,22
2018-07-26T03:33:13.934Z,22
2018-07-26T03:34:13.849Z,22
2018-07-26T03:35:13.864Z,28
2018-07-26T03:36:13.939Z,28
2018-07-26T03:37:13.937Z,33
2018-07-26T03:38:13.851Z,33
2018-07-26T03:39:13.986Z,39
2018-07-26T03:40:13.962Z,39
2018-07-26T03:41:13.917Z,45
2018-07-26T03:42:13.990Z,45
2018-07-26T03:43:14.010Z,50
2018-07-26T03:44:13.891Z,56
2018-07-26T03:45:13.973Z,56
2018-07-26T03:46:13.855Z,61
2018-07-26T03:47:13.988Z,67
2018-07-26T03:48:13.922Z,67
2018-07-26T03:49:13.894Z,73
2018-07-26T03:50:13.951Z,78
2018-07-26T03:51:13.954Z,78
2018-07-26T03:52:13.957Z,84
2018-07-26T03:53:13.955Z,90
2018-07-26T03:54:13.890Z,95
2018-07-26T03:55:13.967Z,95
2018-07-26T03:56:13.889Z,101
2018-07-26T03:57:13.955Z,106
2018-07-26T03:58:13.956Z,112
2018-07-26T03:59:13.957Z,112
2018-07-26T04:00:13.973Z,118
2018-07-26T04:01:13.865Z,123
2018-07-26T04:02:13.900Z,129
2018-07-26T04:03:13.991Z,135
2018-07-26T04:04:13.961Z,135
2018-07-26T04:05:13.880Z,140
2018-07-26T04:06:13.995Z,146
2018-07-26T04:07:13.988Z,151
2018-07-26T04:08:13.928Z,157
2018-07-26T04:09:13.997Z,163
2018-07-26T04:10:13.997Z,168
2018-07-26T04:11:13.998Z,168
2018-07-26T04:12:13.933Z,174
2018-07-26T04:13:13.928Z,180
2018-07-26T04:14:13.879Z,185
2018-07-26T04:15:13.954Z,191
2018-07-26T04:16:13.970Z,191
2018-07-26T04:17:13.872Z,196
2018-07-26T04:18:13.932Z,202
2018-07-26T04:19:13.894Z,208
2018-07-26T04:20:13.976Z,213
2018-07-26T04:21:13.992Z,219
2018-07-26T04:22:13.943Z,219
2018-07-26T04:23:13.952Z,225
2018-07-26T04:24:13.942Z,230
2018-07-26T04:25:14.003Z,236
2018-07-26T04:26:13.951Z,241
2018-07-26T04:27:13.948Z,247
2018-07-26T04:28:13.985Z,253
2018-07-26T04:29:13.936Z,258
2018-07-26T04:30:13.954Z,264
2018-07-26T04:31:14.002Z,270
2018-07-26T04:32:13.992Z,270
2018-07-26T04:33:13.995Z,275
2018-07-26T04:34:13.943Z,281
2018-07-26T04:35:14.005Z,286
2018-07-26T04:36:13.947Z,292
2018-07-26T04:37:14.029Z,298
2018-07-26T04:38:14.040Z,298
2018-07-26T04:39:14.047Z,303
2018-07-26T04:40:13.893Z,309
2018-07-26T04:41:13.951Z,315
2018-07-26T04:42:13.968Z,315
2018-07-26T04:43:13.958Z,320
2018-07-26T04:44:13.965Z,326
2018-07-26T04:45:13.909Z,331
2018-07-26T04:46:14.012Z,337
2018-07-26T04:47:13.929Z,343
2018-07-26T04:48:13.957Z,343
2018-07-26T04:49:13.912Z,354
2018-07-26T04:50:13.891Z,354
2018-07-26T04:51:13.954Z,360
2018-07-26T04:52:13.960Z,365
2018-07-26T04:53:13.963Z,371
2018-07-26T04:54:13.962Z,371
2018-07-26T04:55:13.951Z,376
2018-07-26T04:56:13.977Z,382
2018-07-26T04:57:14.026Z,388
2018-07-26T04:58:13.967Z,393
2018-07-26T04:59:13.961Z,393
2018-07-26T05:00:14.035Z,399
2018-07-26T05:01:13.970Z,405
2018-07-26T05:02:13.997Z,410
2018-07-26T05:03:14.034Z,416
2018-07-26T05:04:14.031Z,416
2018-07-26T05:05:13.978Z,427
2018-07-26T05:06:13.981Z,433
2018-07-26T05:07:13.979Z,433
2018-07-26T05:08:14.062Z,438
2018-07-26T05:09:13.909Z,444
2018-07-26T05:10:13.881Z,450
2018-07-26T05:11:14.002Z,455
2018-07-26T05:12:13.966Z,455
2018-07-26T05:13:13.918Z,461
2018-07-26T05:14:13.919Z,466
2018-07-26T05:15:13.998Z,472
2018-07-26T05:16:13.967Z,478
2018-07-26T05:17:14.007Z,483
2018-07-26T05:18:13.969Z,483
2018-07-26T05:19:14.015Z,489
2018-07-26T05:20:14.011Z,495
2018-07-26T05:21:13.951Z,500
2018-07-26T05:22:13.896Z,500
2018-07-26T05:23:13.950Z,506
2018-07-26T05:24:13.950Z,506
2018-07-26T05:25:14.017Z,511
2018-07-26T05:26:13.950Z,511
2018-07-26T05:27:14.027Z,517
2018-07-26T05:28:13.953Z,523
2018-07-26T05:29:13.926Z,528
2018-07-26T05:30:13.991Z,534
2018-07-26T05:31:14.050Z,534
2018-07-26T05:32:14.052Z,540
2018-07-26T05:33:14.058Z,545
2018-07-26T05:34:13.930Z,551
2018-07-26T05:35:13.931Z,551
2018-07-26T05:36:14.046Z,556
2018-07-26T05:37:13.969Z,562
2018-07-26T05:38:13.993Z,568
2018-07-26T05:39:13.931Z,568
2018-07-26T05:40:14.014Z,573
2018-07-26T05:41:13.964Z,579
2018-07-26T05:42:14.024Z,579
2018-07-26T05:43:13.988Z,585
2018-07-26T05:44:13.982Z,590
2018-07-26T05:45:13.936Z,590
2018-07-26T05:46:13.941Z,596
2018-07-26T05:47:13.966Z,601
2018-07-26T05:48:14.019Z,607
2018-07-26T05:49:14.009Z,607
2018-07-26T05:50:14.002Z,613
2018-07-26T05:51:14.037Z,821
2018-07-26T05:52:14.006Z,1141
2018-07-26T05:53:14.130Z,1231
2018-07-26T05:54:14.084Z,1282
2018-07-26T05:55:14.064Z,1428
2018-07-26T05:56:14.058Z,2137
2018-07-26T05:57:14.014Z,1636
2018-07-26T05:58:14.039Z,1456
2018-07-26T05:59:14.079Z,1485
2018-07-26T06:00:14.024Z,1518
2018-07-26T06:01:14.049Z,1524
2018-07-26T06:02:14.045Z,1546
2018-07-26T06:03:13.980Z,1552
2018-07-26T06:04:14.010Z,1558
2018-07-26T06:05:14.054Z,1563
2018-07-26T06:06:14.044Z,1575
2018-07-26T06:07:14.003Z,1597
2018-07-26T06:08:14.050Z,1614
2018-07-26T06:09:14.051Z,1636
2018-07-26T06:10:13.969Z,1648
2018-07-26T06:11:13.953Z,1659
2018-07-26T06:12:14.039Z,1687
2018-07-26T06:13:13.971Z,1693
2018-07-26T06:14:14.045Z,1698
2018-07-26T06:15:13.962Z,1715
2018-07-26T06:16:13.985Z,1732
2018-07-26T06:17:14.043Z,1732
2018-07-26T06:18:14.076Z,1738
2018-07-26T06:19:14.128Z,1738
2018-07-26T06:20:14.026Z,1743
2018-07-26T06:21:14.011Z,1760
2018-07-26T06:22:14.031Z,1771
2018-07-26T06:23:13.958Z,1755
2018-07-26T06:24:13.959Z,1738
2018-07-26T06:25:14.099Z,1726
2018-07-26T06:26:13.982Z,1721
2018-07-26T06:27:14.042Z,1715
2018-07-26T06:28:14.182Z,1704
2018-07-26T06:29:14.093Z,1704
2018-07-26T06:30:14.036Z,1726
2018-07-26T06:31:14.112Z,1760
2018-07-26T06:32:14.030Z,1816
2018-07-26T06:33:14.034Z,1856
2018-07-26T06:34:14.007Z,1918
2018-07-26T06:35:14.075Z,1951
2018-07-26T06:36:14.026Z,2002
2018-07-26T06:37:14.122Z,2053
2018-07-26T06:38:14.102Z,2092
2018-07-26T06:39:14.001Z,2148
2018-07-26T06:40:13.975Z,2193
2018-07-26T06:41:14.074Z,2233
2018-07-26T06:42:14.084Z,2261
2018-07-26T06:43:14.008Z,2283
2018-07-26T06:44:14.000Z,2244
2018-07-26T06:45:13.972Z,2210
2018-07-26T06:46:14.067Z,2137
2018-07-26T06:47:14.023Z,2081
2018-07-26T06:48:14.069Z,2013
2018-07-26T06:49:13.967Z,1957
2018-07-26T06:50:14.073Z,1946
2018-07-26T06:51:14.081Z,1980
2018-07-26T06:52:14.074Z,2075
2018-07-26T06:53:14.011Z,2210
2018-07-26T06:54:14.084Z,2351
2018-07-26T06:55:14.078Z,2469
2018-07-26T06:56:14.016Z,2565
2018-07-26T06:57:14.015Z,2643
2018-07-26T06:58:14.010Z,2705
2018-07-26T06:59:13.990Z,2756
2018-07-26T07:00:14.077Z,2790
2018-07-26T07:01:14.065Z,2806
2018-07-26T07:02:14.113Z,2851
2018-07-26T07:03:14.058Z,2885
2018-07-26T07:04:14.090Z,2925
2018-07-26T07:05:14.084Z,2930
2018-07-26T07:06:14.124Z,2941
2018-07-26T07:07:14.056Z,2925
2018-07-26T07:08:14.094Z,2902
2018-07-26T07:09:14.043Z,2902
2018-07-26T07:10:13.990Z,2902
2018-07-26T07:11:13.977Z,2913
2018-07-26T07:12:14.034Z,2930
2018-07-26T07:13:14.077Z,2936
2018-07-26T07:14:14.026Z,2947
2018-07-26T07:15:13.959Z,2947
2018-07-26T07:16:14.083Z,2958
2018-07-26T07:17:14.082Z,2953
2018-07-26T07:18:13.998Z,2947
2018-07-26T07:19:14.159Z,2930
2018-07-26T07:20:14.035Z,2964
2018-07-26T07:21:14.035Z,2975
2018-07-26T07:22:14.046Z,3009
2018-07-26T07:23:14.111Z,3060
2018-07-26T07:24:14.035Z,3099
2018-07-26T07:25:14.033Z,3150
2018-07-26T07:26:14.100Z,3178
2018-07-26T07:27:14.166Z,3189
2018-07-26T07:28:14.102Z,3211
2018-07-26T07:29:14.073Z,3251
2018-07-26T07:30:14.099Z,3273
2018-07-26T07:31:14.137Z,3251
2018-07-26T07:32:14.090Z,3228
2018-07-26T07:33:14.079Z,3211
2018-07-26T07:34:14.126Z,3245
2018-07-26T07:35:14.151Z,3290
2018-07-26T07:36:14.088Z,3335
2018-07-26T07:37:14.076Z,3358
2018-07-26T07:38:14.035Z,3380
2018-07-26T07:39:14.066Z,3425
2018-07-26T07:40:14.050Z,3470
2018-07-26T07:41:14.134Z,3470
2018-07-26T07:42:14.033Z,3481
2018-07-26T07:43:14.061Z,3481
2018-07-26T07:44:14.075Z,3515
2018-07-26T07:45:14.112Z,3532
2018-07-26T07:46:14.152Z,3526
2018-07-26T07:47:14.168Z,3560
2018-07-26T07:48:14.131Z,3577
2018-07-26T07:49:14.091Z,3633
2018-07-26T07:50:14.053Z,3661
2018-07-26T07:51:14.050Z,3656
2018-07-26T07:52:14.120Z,3650
2018-07-26T07:53:14.119Z,3701
2018-07-26T07:54:14.063Z,3746
2018-07-26T07:55:14.118Z,3729
2018-07-26T07:56:14.059Z,3701
2018-07-26T07:57:14.057Z,3673
2018-07-26T07:58:14.139Z,3695
2018-07-26T07:59:14.055Z,3706
2018-07-26T08:00:14.098Z,3712
2018-07-26T08:01:14.082Z,3718
2018-07-26T08:02:14.125Z,3678
2018-07-26T08:03:14.067Z,3678
2018-07-26T08:04:14.155Z,3695
2018-07-26T08:05:14.145Z,3712
2018-07-26T08:06:14.127Z,3718
2018-07-26T08:07:14.150Z,3740
2018-07-26T08:08:14.165Z,3768
2018-07-26T08:09:14.098Z,3785
2018-07-26T08:10:14.088Z,3847
2018-07-26T08:11:14.182Z,3886
2018-07-26T08:12:14.033Z,3915
2018-07-26T08:13:14.164Z,3937
2018-07-26T08:14:14.154Z,3971
2018-07-26T08:15:14.043Z,4010
2018-07-26T08:16:14.096Z,4044
2018-07-26T08:17:14.108Z,4066
2018-07-26T08:18:14.110Z,4095
2018-07-26T08:19:14.152Z,4078
2018-07-26T08:20:14.141Z,4078
2018-07-26T08:21:14.165Z,4128
2018-07-26T08:22:14.072Z,4179
2018-07-26T08:23:14.112Z,4224
2018-07-26T08:24:14.151Z,4235
2018-07-26T08:25:14.076Z,4201
2018-07-26T08:26:14.146Z,4201
2018-07-26T08:27:14.147Z,4179
2018-07-26T08:28:14.081Z,4156
2018-07-26T08:29:14.074Z,4117
2018-07-26T08:30:14.105Z,4083
2018-07-26T08:31:14.164Z,4106
2018-07-26T08:32:14.174Z,4128
2018-07-26T08:33:14.161Z,4162
2018-07-26T08:34:14.174Z,4168
2018-07-26T08:35:14.226Z,4173
2018-07-26T08:36:14.067Z,4201
2018-07-26T08:37:14.184Z,4190
2018-07-26T08:38:14.149Z,4173
2018-07-26T08:39:14.071Z,4201
2018-07-26T08:40:14.156Z,4241
2018-07-26T08:41:14.085Z,4303
2018-07-26T08:42:14.151Z,4348
2018-07-26T08:43:14.087Z,4365
2018-07-26T08:44:14.157Z,4398
2018-07-26T08:45:14.088Z,4488
2018-07-26T08:46:14.159Z,4528
2018-07-26T08:47:14.090Z,4505
2018-07-26T08:48:14.185Z,4483
2018-07-26T08:49:14.092Z,4494
2018-07-26T08:50:14.092Z,4500
2018-07-26T08:51:14.155Z,4494
2018-07-26T08:52:14.169Z,4455
2018-07-26T08:53:14.091Z,4410
2018-07-26T08:54:14.195Z,4393
2018-07-26T08:55:14.161Z,4421
2018-07-26T08:56:14.162Z,4466
2018-07-26T08:57:14.094Z,4505
2018-07-26T08:58:14.100Z,4522
2018-07-26T08:59:14.162Z,4573
2018-07-26T09:00:14.145Z,4651
2018-07-26T09:01:14.233Z,4708
2018-07-26T09:02:14.099Z,4702
2018-07-26T09:03:14.224Z,4708
2018-07-26T09:04:14.166Z,4741
2018-07-26T09:05:14.072Z,4725
2018-07-26T09:06:14.198Z,4747
2018-07-26T09:07:14.077Z,4741
2018-07-26T09:08:14.092Z,4702
2018-07-26T09:09:14.129Z,4668
2018-07-26T09:10:14.151Z,4685
2018-07-26T09:11:14.174Z,4640
2018-07-26T09:12:14.196Z,4567
2018-07-26T09:13:14.069Z,4522
2018-07-26T09:14:14.135Z,4545
2018-07-26T09:15:14.075Z,4612
2018-07-26T09:16:14.203Z,4657
2018-07-26T09:17:14.268Z,4708
2018-07-26T09:18:14.074Z,4781
2018-07-26T09:19:14.147Z,4848
2018-07-26T09:20:14.210Z,4893
2018-07-26T09:21:14.194Z,4905
2018-07-26T09:22:14.208Z,4888
2018-07-26T09:23:14.202Z,4860
2018-07-26T09:24:14.104Z,4860
2018-07-26T09:25:14.208Z,4843
2018-07-26T09:26:14.190Z,4865
2018-07-26T09:27:14.235Z,4888
2018-07-26T09:28:14.146Z,4933
2018-07-26T09:29:14.148Z,4905
2018-07-26T09:30:14.186Z,4882
2018-07-26T09:31:14.143Z,4888
2018-07-26T09:32:14.188Z,4916
2018-07-26T09:33:14.249Z,4893
2018-07-26T09:34:14.196Z,4921
2018-07-26T09:35:14.148Z,4888
2018-07-26T09:36:14.169Z,4905
2018-07-26T09:37:14.224Z,4916
2018-07-26T09:38:14.150Z,4950
2018-07-26T09:39:14.098Z,5006
2018-07-26T09:40:14.192Z,5062
2018-07-26T09:41:14.152Z,5090
2018-07-26T09:42:14.232Z,5113
2018-07-26T09:43:14.220Z,5130
2018-07-26T09:44:14.168Z,5191
2018-07-26T09:45:14.101Z,5186
2018-07-26T09:46:14.199Z,5169
2018-07-26T09:47:14.148Z,5090
2018-07-26T09:48:14.172Z,5079
2018-07-26T09:49:14.228Z,4978
2018-07-26T09:50:14.196Z,4820
2018-07-26T09:51:14.172Z,4888
2018-07-26T09:52:14.098Z,4798
2018-07-26T09:53:14.175Z,4764
2018-07-26T09:54:14.182Z,4854
2018-07-26T09:55:14.214Z,4809
2018-07-26T09:56:14.122Z,4747
2018-07-26T09:57:14.108Z,4657
2018-07-26T09:58:14.186Z,4618
2018-07-26T09:59:14.161Z,4539
2018-07-26T10:00:14.168Z,4466
2018-07-26T10:01:14.168Z,4466
2018-07-26T10:02:14.168Z,4539
2018-07-26T10:03:14.184Z,4477
2018-07-26T10:04:14.238Z,4567
2018-07-26T10:05:14.114Z,4657
2018-07-26T10:06:14.168Z,4573
2018-07-26T10:07:14.250Z,4741
2018-07-26T10:08:14.184Z,4826
2018-07-26T10:09:14.120Z,4899
2018-07-26T10:10:14.102Z,4983
2018-07-26T10:11:14.195Z,5079
2018-07-26T10:12:14.155Z,5124
2018-07-26T10:13:14.198Z,5096
2018-07-26T10:14:14.198Z,5085
2018-07-26T10:15:14.177Z,5141
2018-07-26T10:16:14.175Z,5130
2018-07-26T10:17:14.201Z,5225
2018-07-26T10:18:14.192Z,5191
2018-07-26T10:19:14.092Z,5220
2018-07-26T10:20:14.225Z,5225
2018-07-26T10:21:14.092Z,5270
2018-07-26T10:22:14.153Z,5281
2018-07-26T10:23:14.106Z,5265
2018-07-26T10:24:14.210Z,5293
2018-07-26T10:25:14.121Z,5220
2018-07-26T10:26:14.180Z,5225
2018-07-26T10:27:14.175Z,5186
2018-07-26T10:28:14.091Z,5175
2018-07-26T10:29:14.096Z,5175
2018-07-26T10:30:14.254Z,5231
2018-07-26T10:31:14.186Z,5248
2018-07-26T10:33:14.260Z,5332
2018-07-26T10:34:14.248Z,5394
2018-07-26T10:35:14.148Z,5501
2018-07-26T10:36:14.157Z,5529
2018-07-26T10:37:14.259Z,5568
2018-07-26T10:38:14.138Z,5580
2018-07-26T10:39:14.135Z,5568
2018-07-26T10:41:14.194Z,5619
2018-07-26T10:42:14.238Z,5619
2018-07-26T10:43:14.179Z,5619
2018-07-26T10:44:14.195Z,5574
2018-07-26T10:45:14.196Z,5540
2018-07-26T10:47:14.210Z,5557
2018-07-26T10:48:14.146Z,5523
2018-07-26T10:49:14.214Z,5501
2018-07-26T10:50:14.198Z,5478
2018-07-26T10:51:14.192Z,5411
2018-07-26T10:52:14.149Z,5388
2018-07-26T10:53:14.142Z,5388
2018-07-26T10:54:14.256Z,5355
2018-07-26T10:55:14.269Z,5259
2018-07-26T10:56:14.279Z,5220
2018-07-26T10:57:14.258Z,5113
2018-07-26T10:58:14.208Z,5180
2018-07-26T10:59:14.150Z,5321
2018-07-26T11:00:14.180Z,5371
2018-07-26T11:01:14.182Z,5400
2018-07-26T11:02:14.222Z,5203
2018-07-26T11:03:14.233Z,5214
2018-07-26T11:04:14.146Z,5236
2018-07-26T11:05:14.186Z,5265
2018-07-26T11:06:14.203Z,5242
2018-07-26T11:07:14.122Z,5135
2018-07-26T11:08:14.144Z,4933
2018-07-26T11:09:14.144Z,4803
2018-07-26T11:10:14.162Z,4905
2018-07-26T11:11:14.285Z,4905
2018-07-26T11:12:14.251Z,4815
2018-07-26T11:13:14.291Z,4916
2018-07-26T11:14:14.157Z,4848
2018-07-26T11:15:14.295Z,4719
2018-07-26T11:16:14.158Z,4820
2018-07-26T11:17:14.180Z,4775
2018-07-26T11:18:14.275Z,4725
2018-07-26T11:19:14.219Z,4803
2018-07-26T11:20:14.383Z,4882
2018-07-26T11:21:14.245Z,4854
2018-07-26T11:22:14.261Z,4910
2018-07-26T11:23:14.247Z,5152
2018-07-26T11:24:14.298Z,5034
2018-07-26T11:25:14.296Z,5118
2018-07-26T11:26:14.249Z,5214
2018-07-26T11:27:14.171Z,5141
2018-07-26T11:28:14.228Z,5259
2018-07-26T11:29:14.295Z,5383
2018-07-26T11:30:14.298Z,5304
2018-07-26T11:31:14.225Z,5377
2018-07-26T11:32:14.264Z,5585
2018-07-26T11:33:14.237Z,5602
2018-07-26T11:34:14.234Z,5490
2018-07-26T11:35:14.225Z,5383
2018-07-26T11:36:14.308Z,5321
2018-07-26T11:37:14.308Z,5203
2018-07-26T11:38:14.176Z,5225
2018-07-26T11:39:14.180Z,5158
2018-07-26T11:40:14.231Z,5056
2018-07-26T11:41:14.243Z,4899
2018-07-26T11:42:14.280Z,4899
2018-07-26T11:43:14.243Z,4899
2018-07-26T11:44:14.347Z,4938
2018-07-26T11:45:14.307Z,5006
2018-07-26T11:46:14.311Z,5197
2018-07-26T11:47:14.297Z,5236
2018-07-26T11:48:14.274Z,5265
2018-07-26T11:49:14.294Z,5276
2018-07-26T11:50:14.310Z,5371
2018-07-26T11:51:14.255Z,5388
2018-07-26T11:52:14.297Z,5242
2018-07-26T11:53:14.243Z,5163
2018-07-26T11:54:14.305Z,5158
2018-07-26T11:55:14.248Z,5011
2018-07-26T11:56:14.313Z,5068
2018-07-26T11:57:14.294Z,5332
2018-07-26T11:58:14.194Z,5326
2018-07-26T11:59:14.289Z,5332
2018-07-26T12:00:14.229Z,5523
2018-07-26T12:01:14.254Z,5585
2018-07-26T12:02:14.319Z,5658
2018-07-26T12:03:14.210Z,5737
2018-07-26T12:04:14.302Z,5596
2018-07-26T12:05:14.257Z,5321
2018-07-26T12:06:14.315Z,4944
2018-07-26T12:07:14.318Z,4831
2018-07-26T12:08:14.279Z,4961
2018-07-26T12:09:14.261Z,4966
2018-07-26T12:10:14.321Z,4893
2018-07-26T12:11:14.273Z,4978
2018-07-26T12:12:14.295Z,4950
2018-07-26T12:13:14.356Z,4764
2018-07-26T12:14:14.341Z,4719
2018-07-26T12:15:14.296Z,4640
2018-07-26T12:16:14.336Z,4646
2018-07-26T12:17:14.276Z,4595
2018-07-26T12:18:14.265Z,4528
2018-07-26T12:19:14.319Z,4348
2018-07-26T12:20:14.223Z,4173
2018-07-26T12:21:14.268Z,4033
2018-07-26T12:22:14.338Z,4173
2018-07-26T12:23:14.266Z,4230
2018-07-26T12:24:14.305Z,4263
2018-07-26T12:25:14.225Z,4336
2018-07-26T12:26:14.334Z,4505
2018-07-26T12:27:14.337Z,4539
2018-07-26T12:28:14.229Z,4545
2018-07-26T12:29:14.339Z,4387
2018-07-26T12:30:14.305Z,4308
2018-07-26T12:31:14.313Z,4241
2018-07-26T12:32:14.219Z,4376
2018-07-26T12:33:14.314Z,4050
2018-07-26T12:34:14.287Z,3920
2018-07-26T12:35:14.336Z,3982
2018-07-26T12:36:14.223Z,4033
2018-07-26T12:37:14.362Z,4207
2018-07-26T12:38:14.221Z,4426
2018-07-26T12:39:14.341Z,4393
2018-07-26T12:40:14.248Z,4466
2018-07-26T12:41:14.357Z,4460
2018-07-26T12:42:14.219Z,4387
2018-07-26T12:43:14.312Z,4438
2018-07-26T12:44:14.246Z,4567
2018-07-26T12:45:14.308Z,4595
2018-07-26T12:46:14.225Z,4573
2018-07-26T12:47:14.253Z,4584
2018-07-26T12:48:14.228Z,4578
2018-07-26T12:49:14.315Z,4516
2018-07-26T12:50:14.323Z,4483
2018-07-26T12:51:14.321Z,4505
2018-07-26T12:52:14.356Z,4477
2018-07-26T12:53:14.413Z,4471
2018-07-26T12:54:14.290Z,4432
2018-07-26T12:55:14.292Z,4398
2018-07-26T12:56:14.337Z,4393
2018-07-26T12:57:14.328Z,4500
2018-07-26T12:58:14.289Z,4505
2018-07-26T12:59:14.231Z,4545
2018-07-26T13:00:14.280Z,4561
2018-07-26T13:01:14.231Z,4426
2018-07-26T13:02:14.204Z,4398
2018-07-26T13:03:14.287Z,4342
2018-07-26T13:04:14.267Z,4477
2018-07-26T13:05:14.329Z,4533
2018-07-26T13:06:14.239Z,4556
2018-07-26T13:07:14.388Z,4618
2018-07-26T13:08:14.267Z,4629
2018-07-26T13:09:14.356Z,4623
2018-07-26T13:10:14.271Z,4578
2018-07-26T13:11:14.337Z,4550
2018-07-26T13:12:14.382Z,4488
2018-07-26T13:13:14.338Z,4438
2018-07-26T13:14:14.339Z,4331
2018-07-26T13:15:14.313Z,4297
2018-07-26T13:16:14.270Z,4207
2018-07-26T13:17:14.342Z,4128
2018-07-26T13:18:14.341Z,4106
2018-07-26T13:19:14.274Z,4111
2018-07-26T13:20:14.379Z,4083
2018-07-26T13:21:14.341Z,4055
2018-07-26T13:22:14.283Z,4033
2018-07-26T13:23:14.384Z,4111
2018-07-26T13:24:14.344Z,4151
2018-07-26T13:25:14.311Z,4246
2018-07-26T13:26:14.343Z,4331
2018-07-26T13:27:14.308Z,4359
2018-07-26T13:28:14.283Z,4376
2018-07-26T13:29:14.348Z,4353
2018-07-26T13:30:14.310Z,4291
2018-07-26T13:31:14.315Z,4286
2018-07-26T13:32:14.352Z,4303
2018-07-26T13:33:14.295Z,4336
2018-07-26T13:34:14.431Z,4336
2018-07-26T13:35:14.394Z,4331
2018-07-26T13:36:14.366Z,4336
2018-07-26T13:37:14.306Z,4258
2018-07-26T13:38:14.385Z,4134
2018-07-26T13:39:14.250Z,4038
2018-07-26T13:40:14.377Z,3217
2018-07-26T13:41:14.325Z,3960
2018-07-26T13:42:14.382Z,3886
2018-07-26T13:43:14.333Z,3926
2018-07-26T13:44:14.386Z,4140
2018-07-26T13:45:14.367Z,4258
2018-07-26T13:46:14.328Z,4190
2018-07-26T13:47:14.270Z,4173